Blackdown, United Kingdom
Current Conditions -  °F | °C
As of 1:20 PM on Tuesday 21 Oct 2014 (Local Time) from EGLF Reporting Station
Scattered Clouds Scattered Clouds  
Wind Chill: 55°   Ceiling: Unl
Heat Index: 55°   Visibility: 6mi
Dew Point: 39°   Wind: 21mph
Humidity: 54%   Direction: 290°WNW
Pressure: 29.77"   Gusts: 33mph
Location:  51.29°N, 0.73°W
Report Text: EGLF 211220Z 29018G29KT 240V330 9999 SCT042 13/04 Q1008
Loading
Personal Weather Stations






























Interactive Weather Map
Tropical Storm Tracking
New forecast layout! Learn more

10-Day Weather Forecast

Advertisements
Track Severe Weather on mobile